createdAt,value
2018-10-11T00:01:04.155Z,32.37
2018-10-11T00:03:33.725Z,32.30
2018-10-11T00:06:02.971Z,37.83
2018-10-11T00:08:32.511Z,29.37
2018-10-11T00:11:01.796Z,28.60
2018-10-11T00:13:30.952Z,30.97
2018-10-11T00:16:00.605Z,32.30
2018-10-11T00:18:29.646Z,34.40
2018-10-11T00:20:58.853Z,32.80
2018-10-11T00:23:27.932Z,30.90
2018-10-11T00:25:57.110Z,29.17
2018-10-11T00:28:26.314Z,33.87
2018-10-11T00:30:55.933Z,33.83
2018-10-11T00:33:25.078Z,33.03
2018-10-11T00:38:29.605Z,31.10
2018-10-11T00:40:58.952Z,37.93
2018-10-11T00:43:28.385Z,34.70
2018-10-11T00:45:57.907Z,33.83
2018-10-11T00:48:27.631Z,33.43
2018-10-11T00:50:56.943Z,33.77
2018-10-11T00:53:26.773Z,29.77
2018-10-11T00:55:56.350Z,31.67
2018-10-11T00:58:25.501Z,31.00
2018-10-11T01:00:54.664Z,33.50
2018-10-11T01:03:23.696Z,30.80
2018-10-11T01:05:52.745Z,34.57
2018-10-11T01:08:21.815Z,32.83
2018-10-11T01:10:50.878Z,32.20
2018-10-11T01:13:19.984Z,31.13
2018-10-11T01:15:49.012Z,32.57
2018-10-11T01:18:18.126Z,30.53
2018-10-11T01:20:47.204Z,38.43
2018-10-11T01:23:16.219Z,31.10
2018-10-11T01:25:45.233Z,30.33
2018-10-11T01:28:14.363Z,29.73
2018-10-11T01:30:48.935Z,30.80
2018-10-11T01:33:18.009Z,29.73
2018-10-11T01:35:47.418Z,32.67
2018-10-11T01:38:16.463Z,31.93
2018-10-11T01:40:46.273Z,34.20
2018-10-11T01:43:15.716Z,33.67
2018-10-11T01:45:44.864Z,32.90
2018-10-11T01:48:14.028Z,31.70
2018-10-11T01:50:43.220Z,31.90
2018-10-11T01:53:12.298Z,30.53
2018-10-11T01:55:42.130Z,30.57
2018-10-11T01:58:11.315Z,30.57
2018-10-11T02:00:40.563Z,32.73
2018-10-11T02:03:09.848Z,29.67
2018-10-11T02:05:39.190Z,31.80
2018-10-11T02:08:09.102Z,30.33
2018-10-11T02:10:38.318Z,32.70
2018-10-11T02:13:08.577Z,31.47
2018-10-11T02:15:37.922Z,32.40
2018-10-11T02:18:07.059Z,31.43
2018-10-11T02:20:36.317Z,30.70
2018-10-11T02:23:05.795Z,33.30
2018-10-11T02:25:35.259Z,34.43
2018-10-11T02:28:05.020Z,32.27
2018-10-11T02:30:35.361Z,29.73
2018-10-11T02:33:04.581Z,34.03
2018-10-11T02:35:34.088Z,28.83
2018-10-11T02:38:03.156Z,31.33
2018-10-11T02:40:32.591Z,33.93
2018-10-11T02:43:01.599Z,32.30
2018-10-11T02:45:31.196Z,30.20
2018-10-11T02:48:00.252Z,35.30
2018-10-11T02:50:29.334Z,31.97
2018-10-11T02:52:58.606Z,33.03
2018-10-11T02:55:27.996Z,35.57
2018-10-11T02:58:08.625Z,35.60
2018-10-11T03:00:37.979Z,31.10
2018-10-11T03:03:09.012Z,33.03
2018-10-11T03:05:40.790Z,30.23
2018-10-11T03:08:12.059Z,32.83
2018-10-11T03:10:41.293Z,32.37
2018-10-11T03:13:12.975Z,32.87
2018-10-11T03:15:42.867Z,25.90
2018-10-11T03:18:13.298Z,28.87
2018-10-11T03:20:43.853Z,31.80
2018-10-11T03:23:13.682Z,30.13
2018-10-11T03:25:44.010Z,30.27
2018-10-11T03:28:14.570Z,31.60
2018-10-11T03:30:44.350Z,30.70
2018-10-11T03:33:14.297Z,30.13
2018-10-11T03:35:44.320Z,33.87
2018-10-11T03:38:14.246Z,32.87
2018-10-11T03:40:43.524Z,30.23
2018-10-11T03:43:12.866Z,33.83
2018-10-11T03:45:42.014Z,29.00
2018-10-11T03:48:11.418Z,31.47
2018-10-11T03:50:40.531Z,33.47
2018-10-11T03:53:10.047Z,28.80
2018-10-11T03:55:39.479Z,29.27
2018-10-11T03:58:08.659Z,31.77
2018-10-11T04:00:37.768Z,34.33
2018-10-11T04:03:07.003Z,32.53
2018-10-11T04:05:36.391Z,29.10
2018-10-11T04:08:05.700Z,32.37
2018-10-11T04:10:35.028Z,32.80
2018-10-11T04:13:04.594Z,33.03
2018-10-11T04:15:34.265Z,34.07
2018-10-11T04:18:04.076Z,33.60
2018-10-11T04:20:33.133Z,28.97
2018-10-11T04:23:02.495Z,39.67
2018-10-11T04:25:31.668Z,29.47
2018-10-11T04:28:01.216Z,35.80
2018-10-11T04:30:30.145Z,33.07
2018-10-11T04:32:59.264Z,32.30
2018-10-11T04:35:28.317Z,34.47
2018-10-11T04:37:57.343Z,30.33
2018-10-11T04:40:26.161Z,29.40
2018-10-11T04:42:55.785Z,34.23
2018-10-11T04:45:25.027Z,31.40
2018-10-11T04:47:54.426Z,30.17
2018-10-11T04:50:23.510Z,31.10
2018-10-11T04:52:52.560Z,32.80
2018-10-11T04:55:21.683Z,33.37
2018-10-11T04:57:50.745Z,36.27
2018-10-11T05:00:19.839Z,33.17
2018-10-11T05:02:48.769Z,29.33
2018-10-11T05:05:17.684Z,34.30
2018-10-11T05:07:46.886Z,27.83
2018-10-11T05:10:16.573Z,32.40
2018-10-11T05:12:45.701Z,28.83
2018-10-11T05:15:14.795Z,31.87
2018-10-11T05:17:44.748Z,33.53
2018-10-11T05:20:14.876Z,28.53
2018-10-11T05:22:44.485Z,30.60
2018-10-11T05:25:13.944Z,32.33
2018-10-11T05:27:43.104Z,33.47
2018-10-11T05:30:12.755Z,30.33
2018-10-11T05:32:42.434Z,29.43
2018-10-11T05:35:11.642Z,31.83
2018-10-11T05:37:40.881Z,33.67
2018-10-11T05:40:10.615Z,32.77
2018-10-11T05:42:40.386Z,28.83
2018-10-11T05:45:12.729Z,30.47
2018-10-11T05:47:42.564Z,26.30
2018-10-11T05:50:13.268Z,28.60
2018-10-11T05:52:43.284Z,28.90
2018-10-11T05:55:13.331Z,26.70
2018-10-11T05:57:43.389Z,29.37
2018-10-11T06:00:15.863Z,32.53
2018-10-11T06:02:58.563Z,26.57
2018-10-11T06:05:28.415Z,31.37
2018-10-11T06:07:58.642Z,29.07
2018-10-11T06:10:28.564Z,30.27
2018-10-11T06:12:57.796Z,29.27
2018-10-11T06:15:27.055Z,28.73
2018-10-11T06:17:56.278Z,25.60
2018-10-11T06:20:25.632Z,29.83
2018-10-11T06:22:55.100Z,29.93
2018-10-11T06:25:24.240Z,31.47
2018-10-11T06:27:54.010Z,25.93
2018-10-11T06:30:23.948Z,27.27
2018-10-11T06:32:53.286Z,27.50
2018-10-11T06:35:22.727Z,27.90
2018-10-11T06:37:53.219Z,24.90
2018-10-11T06:40:23.053Z,24.50
2018-10-11T06:42:52.655Z,27.17
2018-10-11T06:45:21.935Z,26.63
2018-10-11T06:47:54.099Z,26.17
2018-10-11T06:50:23.364Z,23.07
2018-10-11T06:55:28.264Z,23.83
2018-10-11T06:57:57.356Z,24.47
2018-10-11T07:00:26.616Z,24.17
2018-10-11T07:02:55.974Z,23.20
2018-10-11T07:05:25.077Z,21.20
2018-10-11T07:07:54.536Z,27.90
2018-10-11T07:10:23.987Z,24.53
2018-10-11T07:12:53.215Z,26.03
2018-10-11T07:15:22.310Z,20.67
2018-10-11T07:17:51.787Z,24.10
2018-10-11T07:20:20.861Z,21.73
2018-10-11T07:22:49.973Z,21.13
2018-10-11T07:25:19.419Z,23.43
2018-10-11T07:27:48.841Z,22.50
2018-10-11T07:30:17.924Z,24.90
2018-10-11T07:32:46.954Z,22.10
2018-10-11T07:35:16.186Z,20.30
2018-10-11T07:37:45.433Z,23.53
2018-10-11T07:40:14.943Z,24.27
2018-10-11T07:42:44.547Z,20.33
2018-10-11T07:45:13.892Z,21.03
2018-10-11T07:47:42.949Z,24.10
2018-10-11T07:50:23.455Z,22.17
2018-10-11T07:52:52.628Z,25.40
2018-10-11T07:55:22.208Z,20.00
2018-10-11T07:57:51.423Z,20.47
2018-10-11T08:00:20.510Z,18.73
2018-10-11T08:02:49.881Z,23.50
2018-10-11T08:05:19.251Z,17.77
2018-10-11T08:07:48.358Z,19.50
2018-10-11T08:10:17.971Z,22.40
2018-10-11T08:12:47.554Z,19.63
2018-10-11T08:15:16.621Z,23.00
2018-10-11T08:17:46.356Z,17.97
2018-10-11T08:20:15.539Z,16.27
2018-10-11T08:22:44.872Z,17.53
2018-10-11T08:25:14.302Z,20.50
2018-10-11T08:27:43.634Z,18.00
2018-10-11T08:30:13.177Z,19.93
2018-10-11T08:32:42.545Z,16.93
2018-10-11T08:35:11.700Z,19.83
2018-10-11T08:37:40.977Z,21.37
2018-10-11T08:40:10.464Z,16.43
2018-10-11T08:42:40.041Z,21.70
2018-10-11T08:45:09.653Z,22.43
2018-10-11T08:47:38.844Z,18.57
2018-10-11T08:50:08.050Z,19.30
2018-10-11T08:52:38.315Z,20.90
2018-10-11T08:55:07.398Z,18.37
2018-10-11T08:57:36.635Z,17.70
2018-10-11T09:00:06.924Z,17.80
2018-10-11T09:02:36.099Z,23.90
2018-10-11T09:05:06.422Z,19.43
2018-10-11T09:07:35.854Z,20.63
2018-10-11T09:10:05.877Z,17.97
2018-10-11T09:12:52.423Z,18.50
2018-10-11T09:15:25.835Z,25.20
2018-10-11T09:17:55.097Z,18.10
2018-10-11T09:20:24.300Z,18.60
2018-10-11T09:22:53.518Z,17.17
2018-10-11T09:25:22.697Z,18.93
2018-10-11T09:27:51.943Z,17.47
2018-10-11T09:30:21.114Z,21.63
2018-10-11T09:32:50.505Z,21.13
2018-10-11T09:35:19.986Z,14.67
2018-10-11T09:37:49.135Z,18.73
2018-10-11T09:40:18.413Z,15.33
2018-10-11T09:42:47.546Z,18.13
2018-10-11T09:45:16.976Z,15.60
2018-10-11T09:47:46.462Z,17.00
2018-10-11T09:50:16.756Z,17.00
2018-10-11T09:52:45.856Z,17.63
2018-10-11T09:55:15.269Z,17.53
2018-10-11T09:57:44.770Z,18.63
2018-10-11T10:00:19.503Z,14.23
2018-10-11T10:02:49.751Z,17.60
2018-10-11T10:05:18.777Z,18.17
2018-10-11T10:07:47.815Z,15.93
2018-10-11T10:10:16.843Z,14.23
2018-10-11T10:12:45.905Z,15.60
2018-10-11T10:15:15.309Z,19.03
2018-10-11T10:17:44.843Z,14.47
2018-10-11T10:20:14.249Z,16.53
2018-10-11T10:22:43.490Z,14.93
2018-10-11T10:25:13.235Z,17.60
2018-10-11T10:27:42.660Z,15.67
2018-10-11T10:30:17.149Z,19.23
2018-10-11T10:32:46.203Z,13.53
2018-10-11T10:35:15.280Z,18.27
2018-10-11T10:37:44.385Z,16.03
2018-10-11T10:40:13.791Z,16.20
2018-10-11T10:42:42.871Z,14.40
2018-10-11T10:45:12.331Z,14.33
2018-10-11T10:47:41.826Z,16.40
2018-10-11T10:50:11.219Z,14.67
2018-10-11T10:52:40.519Z,16.50
2018-10-11T10:55:09.713Z,14.87
2018-10-11T10:57:38.972Z,15.47
2018-10-11T11:00:08.903Z,16.47
2018-10-11T11:02:38.280Z,14.17
2018-10-11T11:05:07.603Z,15.67
2018-10-11T11:07:37.471Z,13.47
2018-10-11T11:10:08.462Z,13.53
2018-10-11T11:12:44.318Z,17.07
2018-10-11T11:15:13.535Z,16.37
2018-10-11T11:17:42.715Z,18.17
2018-10-11T11:20:12.228Z,17.80
2018-10-11T11:22:42.009Z,15.30
2018-10-11T11:25:11.420Z,16.03
2018-10-11T11:27:41.506Z,16.90
2018-10-11T11:30:11.020Z,15.67
2018-10-11T11:32:40.379Z,19.30
2018-10-11T11:35:10.548Z,19.43
2018-10-11T11:37:39.887Z,14.63
2018-10-11T11:40:09.218Z,14.03
2018-10-11T11:42:38.528Z,15.60
2018-10-11T11:45:08.093Z,15.60
2018-10-11T11:47:37.620Z,14.43
2018-10-11T11:50:07.192Z,15.87
2018-10-11T11:52:36.654Z,13.97
2018-10-11T11:55:06.074Z,14.43
2018-10-11T11:57:35.362Z,11.90
2018-10-11T12:00:05.049Z,15.73
2018-10-11T12:02:34.511Z,15.83
2018-10-11T12:05:04.022Z,17.83
2018-10-11T12:07:37.207Z,13.03
2018-10-11T12:10:06.413Z,15.30
2018-10-11T12:12:52.788Z,14.47
2018-10-11T12:15:23.280Z,14.77
2018-10-11T12:17:54.421Z,15.17
2018-10-11T12:20:26.109Z,15.77
2018-10-11T12:22:56.696Z,19.50
2018-10-11T12:25:26.865Z,14.10
2018-10-11T12:27:56.267Z,18.03
2018-10-11T12:30:25.994Z,15.97
2018-10-11T12:32:55.782Z,21.80
2018-10-11T12:35:25.432Z,16.63
2018-10-11T12:37:54.655Z,13.87
2018-10-11T12:40:24.423Z,13.97
2018-10-11T12:42:53.787Z,15.73
2018-10-11T12:45:23.652Z,14.50
2018-10-11T12:47:53.427Z,17.43
2018-10-11T12:50:23.052Z,11.57
2018-10-11T12:52:56.814Z,15.77
2018-10-11T12:55:26.032Z,15.03
2018-10-11T12:57:55.273Z,15.33
2018-10-11T13:00:24.499Z,15.90
2018-10-11T13:02:53.893Z,16.83
2018-10-11T13:05:23.654Z,15.93
2018-10-11T13:07:53.404Z,13.97
2018-10-11T13:10:22.731Z,14.83
2018-10-11T13:12:51.930Z,13.83
2018-10-11T13:15:21.553Z,12.43
2018-10-11T13:17:50.739Z,12.60
2018-10-11T13:20:19.889Z,13.67
2018-10-11T13:22:49.445Z,16.07
2018-10-11T13:25:18.747Z,16.33
2018-10-11T13:27:48.263Z,15.93
2018-10-11T13:30:17.836Z,18.17
2018-10-11T13:32:47.335Z,14.80
2018-10-11T13:35:16.556Z,14.70
2018-10-11T13:37:45.830Z,14.07
2018-10-11T13:40:15.269Z,12.40
2018-10-11T13:42:44.422Z,14.40
2018-10-11T13:45:14.041Z,13.13
2018-10-11T13:47:45.294Z,10.20
2018-10-11T13:50:13.048Z,14.03
2018-10-11T13:52:42.199Z,13.50
2018-10-11T13:55:15.047Z,14.60
2018-10-11T13:57:41.103Z,12.77
2018-10-11T14:00:10.505Z,12.70
2018-10-11T14:02:39.928Z,15.17
2018-10-11T14:05:09.709Z,14.77
2018-10-11T14:07:40.261Z,14.83
2018-10-11T14:10:09.663Z,15.97
2018-10-11T14:12:38.942Z,14.13
2018-10-11T14:15:08.590Z,17.43
2018-10-11T14:17:38.409Z,16.07
2018-10-11T14:20:09.466Z,17.23
2018-10-11T14:22:38.839Z,14.40
2018-10-11T14:25:08.478Z,14.90
2018-10-11T14:27:38.476Z,12.67
2018-10-11T14:30:07.907Z,13.67
2018-10-11T14:32:37.309Z,16.07
2018-10-11T14:35:07.480Z,12.57
2018-10-11T14:37:36.846Z,13.83
2018-10-11T14:40:06.180Z,14.73
2018-10-11T14:42:35.698Z,12.80
2018-10-11T14:45:04.859Z,11.63
2018-10-11T14:47:34.265Z,13.30
2018-10-11T14:50:03.658Z,11.10
2018-10-11T14:52:32.944Z,14.23
2018-10-11T14:55:02.593Z,11.83
2018-10-11T14:57:31.721Z,14.87
2018-10-11T15:00:00.823Z,11.00
2018-10-11T15:02:30.239Z,14.03
2018-10-11T15:04:59.314Z,17.87
2018-10-11T15:07:28.374Z,13.87
2018-10-11T15:09:57.721Z,12.57
2018-10-11T15:12:26.842Z,15.07
2018-10-11T15:14:55.825Z,15.57
2018-10-11T15:17:25.104Z,16.10
2018-10-11T15:19:54.885Z,13.27
2018-10-11T15:22:24.116Z,15.17
2018-10-11T15:24:53.680Z,10.90
2018-10-11T15:27:22.994Z,13.73
2018-10-11T15:29:52.253Z,13.23
2018-10-11T15:32:21.714Z,11.63
2018-10-11T15:34:50.880Z,13.67
2018-10-11T15:37:20.569Z,12.67
2018-10-11T15:39:49.888Z,12.93
2018-10-11T15:42:19.499Z,13.87
2018-10-11T15:44:49.082Z,11.53
2018-10-11T15:47:18.752Z,14.47
2018-10-11T15:49:48.571Z,11.43
2018-10-11T15:52:17.901Z,11.13
2018-10-11T15:54:47.243Z,13.50
2018-10-11T15:57:16.331Z,13.73
2018-10-11T15:59:45.432Z,15.57
2018-10-11T16:02:15.076Z,15.87
2018-10-11T16:04:44.325Z,13.33
2018-10-11T16:07:14.026Z,11.50
2018-10-11T16:09:43.467Z,13.47
2018-10-11T16:12:13.181Z,12.57
2018-10-11T16:14:42.336Z,13.23
2018-10-11T16:17:11.487Z,19.17
2018-10-11T16:19:40.948Z,19.30
2018-10-11T16:22:10.546Z,16.70
2018-10-11T16:24:40.208Z,11.17
2018-10-11T16:27:10.300Z,13.67
2018-10-11T16:29:39.829Z,16.33
2018-10-11T16:32:10.205Z,15.63
2018-10-11T16:34:39.878Z,12.40
2018-10-11T16:37:09.665Z,15.67
2018-10-11T16:39:39.015Z,13.17
2018-10-11T16:42:08.414Z,13.87
2018-10-11T16:44:37.830Z,12.50
2018-10-11T16:47:08.460Z,12.90
2018-10-11T16:49:38.916Z,13.50
2018-10-11T16:52:08.595Z,17.43
2018-10-11T16:54:42.140Z,20.20
2018-10-11T16:57:16.908Z,13.00
2018-10-11T16:59:46.852Z,13.43
2018-10-11T17:02:16.306Z,12.87
2018-10-11T17:04:45.605Z,14.07
2018-10-11T17:07:14.765Z,13.50
2018-10-11T17:09:44.128Z,14.23
2018-10-11T17:12:13.492Z,14.83
2018-10-11T17:14:42.803Z,15.40
2018-10-11T17:17:12.199Z,16.23
2018-10-11T17:19:41.401Z,16.10
2018-10-11T17:22:10.973Z,18.47
2018-10-11T17:24:40.459Z,15.23
2018-10-11T17:27:10.019Z,15.37
2018-10-11T17:29:39.528Z,16.23
2018-10-11T17:32:09.351Z,16.07
2018-10-11T17:34:38.850Z,16.37
2018-10-11T17:37:15.182Z,17.23
2018-10-11T17:39:44.668Z,14.37
2018-10-11T17:42:14.117Z,16.47
2018-10-11T17:44:43.429Z,15.67
2018-10-11T17:47:13.123Z,15.47
2018-10-11T17:49:42.308Z,17.17
2018-10-11T17:52:11.725Z,15.03
2018-10-11T17:54:44.981Z,16.23
2018-10-11T17:57:14.228Z,16.63
2018-10-11T17:59:43.907Z,15.77
2018-10-11T18:02:13.108Z,15.67
2018-10-11T18:04:46.581Z,15.33
2018-10-11T18:07:16.012Z,14.50
2018-10-11T18:09:45.843Z,17.33
2018-10-11T18:12:15.565Z,13.60
2018-10-11T18:14:45.978Z,16.10
2018-10-11T18:17:15.288Z,17.67
2018-10-11T18:19:44.492Z,18.17
2018-10-11T18:22:14.170Z,16.03
2018-10-11T18:24:43.863Z,17.17
2018-10-11T18:27:14.171Z,14.57
2018-10-11T18:29:44.264Z,21.97
2018-10-11T18:32:13.712Z,17.13
2018-10-11T18:34:44.321Z,17.37
2018-10-11T18:37:13.746Z,16.10
2018-10-11T18:39:44.152Z,16.73
2018-10-11T18:42:13.647Z,17.97
2018-10-11T18:44:44.780Z,14.83
2018-10-11T18:47:14.514Z,13.80
2018-10-11T18:49:44.582Z,16.20
2018-10-11T18:52:14.551Z,16.17
2018-10-11T18:54:45.048Z,16.30
2018-10-11T18:57:16.872Z,15.17
2018-10-11T19:02:48.612Z,18.13
2018-10-11T19:05:18.592Z,14.50
2018-10-11T19:07:48.562Z,15.27
2018-10-11T19:10:19.611Z,17.33
2018-10-11T19:12:49.494Z,16.80
2018-10-11T19:15:19.922Z,16.33
2018-10-11T19:17:50.338Z,18.03
2018-10-11T19:20:21.015Z,16.07
2018-10-11T19:22:51.750Z,15.17
2018-10-11T19:25:22.195Z,17.50
2018-10-11T19:27:52.446Z,14.73
2018-10-11T19:30:23.197Z,16.27
2018-10-11T19:32:54.565Z,15.80
2018-10-11T19:35:25.074Z,16.50
2018-10-11T19:37:54.977Z,16.80
2018-10-11T19:40:24.883Z,14.27
2018-10-11T19:42:55.169Z,14.03
2018-10-11T19:45:25.194Z,13.83
2018-10-11T19:47:55.079Z,14.13
2018-10-11T19:50:25.421Z,17.00
2018-10-11T19:52:55.821Z,18.07
2018-10-11T19:55:26.146Z,14.73
2018-10-11T19:57:56.467Z,19.83
2018-10-11T20:00:26.371Z,14.80
2018-10-11T20:02:56.517Z,14.40
2018-10-11T20:05:27.184Z,20.33
2018-10-11T20:07:57.885Z,13.37
2018-10-11T20:10:28.112Z,17.87
2018-10-11T20:12:58.605Z,16.10
2018-10-11T20:15:29.948Z,16.90
2018-10-11T20:18:03.902Z,14.67
2018-10-11T20:20:31.065Z,17.77
2018-10-11T20:23:00.961Z,13.80
2018-10-11T20:25:31.034Z,14.80
2018-10-11T20:28:05.194Z,13.97
2018-10-11T20:30:35.396Z,13.87
2018-10-11T20:33:05.558Z,14.27
2018-10-11T20:35:36.430Z,14.70
2018-10-11T20:38:07.264Z,15.60
2018-10-11T20:40:37.687Z,15.90
2018-10-11T20:43:07.615Z,15.47
2018-10-11T20:45:37.531Z,14.37
2018-10-11T20:48:08.662Z,15.03
2018-10-11T20:50:38.627Z,16.37
2018-10-11T20:53:09.100Z,18.20
2018-10-11T20:55:39.303Z,16.87
2018-10-11T20:58:10.227Z,14.60
2018-10-11T21:00:40.039Z,17.30
2018-10-11T21:03:12.505Z,15.37
2018-10-11T21:05:44.250Z,16.87
2018-10-11T21:08:15.211Z,18.50
2018-10-11T21:10:46.408Z,16.90
2018-10-11T21:13:17.459Z,20.23
2018-10-11T21:15:47.301Z,16.47
2018-10-11T21:18:16.994Z,15.03
2018-10-11T21:20:46.432Z,15.43
2018-10-11T21:23:16.095Z,12.70
2018-10-11T21:25:45.444Z,19.90
2018-10-11T21:28:14.669Z,16.17
2018-10-11T21:30:44.727Z,15.97
2018-10-11T21:33:14.101Z,13.80
2018-10-11T21:35:43.878Z,15.87
2018-10-11T21:38:13.029Z,13.57
2018-10-11T21:40:42.384Z,12.83
2018-10-11T21:43:12.005Z,13.47
2018-10-11T21:45:41.735Z,15.00
2018-10-11T21:48:11.264Z,12.10
2018-10-11T21:50:41.208Z,17.27
2018-10-11T21:53:11.149Z,14.33
2018-10-11T21:55:40.608Z,13.97
2018-10-11T21:58:10.384Z,13.43
2018-10-11T22:00:46.532Z,15.07
2018-10-11T22:03:16.181Z,15.43
2018-10-11T22:05:45.638Z,14.07
2018-10-11T22:08:15.097Z,14.27
2018-10-11T22:10:44.550Z,13.27
2018-10-11T22:13:14.160Z,15.67
2018-10-11T22:15:43.708Z,13.70
2018-10-11T22:18:13.247Z,13.63
2018-10-11T22:20:42.935Z,16.40
2018-10-11T22:23:12.721Z,14.40
2018-10-11T22:25:42.731Z,13.17
2018-10-11T22:28:13.730Z,12.90
2018-10-11T22:30:44.439Z,16.20
2018-10-11T22:33:14.191Z,15.83
2018-10-11T22:35:43.577Z,13.60
2018-10-11T22:38:14.888Z,16.30
2018-10-11T22:40:44.225Z,12.57
2018-10-11T22:43:13.726Z,14.57
2018-10-11T22:45:43.093Z,14.47
2018-10-11T22:48:12.952Z,14.43
2018-10-11T22:50:42.668Z,11.17
2018-10-11T22:53:12.022Z,13.60
2018-10-11T22:55:41.312Z,12.67
2018-10-11T22:58:10.432Z,13.67
2018-10-11T23:00:40.026Z,17.10
2018-10-11T23:03:09.670Z,15.00
2018-10-11T23:05:39.554Z,11.90
2018-10-11T23:08:09.085Z,14.43
2018-10-11T23:10:38.454Z,12.53
2018-10-11T23:13:07.719Z,11.90
2018-10-11T23:15:37.144Z,14.43
2018-10-11T23:18:06.553Z,12.80
2018-10-11T23:20:35.851Z,15.67
2018-10-11T23:23:05.655Z,13.60
2018-10-11T23:25:35.180Z,14.57
2018-10-11T23:28:04.543Z,16.50
2018-10-11T23:30:33.860Z,12.63
2018-10-11T23:33:03.158Z,14.07
2018-10-11T23:35:32.260Z,14.57
2018-10-11T23:38:01.503Z,13.63
2018-10-11T23:40:30.860Z,14.07
2018-10-11T23:43:00.173Z,15.63
2018-10-11T23:45:29.781Z,15.03
2018-10-11T23:47:59.432Z,13.73
2018-10-11T23:50:29.071Z,12.60
2018-10-11T23:52:58.769Z,15.60
2018-10-11T23:55:28.019Z,14.93
2018-10-11T23:57:57.222Z,17.60
